Have a Safe July 4th! 

Flight Track Log - Related Links

Times and Time Zones

All times are in EDT time to prevent confusion due to time zone crossing. See the JST952 flight status page for this flight to view local times or setup timezone preferences in your user account.

Time Position Orientation Groundspeed Altitude Reporting Facility
EDT Latitude Longitude Course Direction KTS MPH feet Rate Location/Type
Tue 04:11:03 PM -33.8727 151.1279 312° West 222 255 3,200  Level Aus ATC (RADAR)
Tue 04:12:05 PM -33.8192 151.0574 312° West 292 336 4,600 1,029 Climbing Aus ATC (RADAR)
Tue 04:12:13 PM -33.8180 151.0560 312° West 324 373 4,400 2,143 Descending FlightAware ADS-B
Tue 04:12:33 PM -33.7940 151.0250 313° West 329 379 5,600 3,491 Climbing FlightAware ADS-B
Tue 04:13:08 PM -33.7570 150.9780 313° West 329 379 7,600 3,840 Climbing FlightAware ADS-B
Tue 04:13:23 PM -33.7372 150.9527 313° West 322 371 8,800 2,880 Climbing Aus ATC (RADAR)
Tue 04:13:33 PM -33.7310 150.9450 313° West 332 382 8,800 1,680 Level FlightAware ADS-B
Tue 04:13:48 PM -33.7150 150.9240 312° West 334 384 9,500 3,176 Climbing FlightAware ADS-B
Tue 04:14:24 PM -33.6692 150.8668 312° West 335 386 11,500 2,550 Climbing Aus ATC (RADAR)
Tue 04:14:28 PM -33.6700 150.8680 312° West 353 406 11,200 1,837 Descending FlightAware ADS-B
Tue 04:15:13 PM -33.6180 150.8030 314° West 369 425 13,000 2,951 Climbing FlightAware ADS-B
Tue 04:15:29 PM -33.5911 150.7749 314° West 358 412 14,200 2,400 Climbing Aus ATC (RADAR)
Tue 04:15:43 PM -33.5760 150.7690 314° West 370 426 14,200 1,778 Level FlightAware ADS-B
Tue 04:16:23 PM -33.5090 150.7500 347° North 377 434 15,800 2,325 Climbing FlightAware ADS-B
Tue 04:17:03 PM -33.4330 150.7270 346° North 398 458 17,300 2,447 Climbing FlightAware ADS-B
Tue 04:17:39 PM -33.3627 150.7068 346° North 392 451 18,900 1,950 Climbing Aus ATC (RADAR)
Tue 04:17:43 PM -33.3610 150.7060 346° North 408 470 18,600 1,592 Descending FlightAware ADS-B
Tue 04:18:28 PM -33.2750 150.6800 346° North 414 476 20,200 1,976 Climbing FlightAware ADS-B
Tue 04:19:08 PM -33.2050 150.6590 346° North 421 484 21,400 2,074 Climbing FlightAware ADS-B
Tue 04:19:49 PM -33.1191 150.6342 346° North 414 476 23,000 1,867 Climbing Aus ATC (RADAR)
Tue 04:19:53 PM -33.1140 150.6320 346° North 428 493 22,800 1,091 Descending FlightAware ADS-B
Tue 04:20:33 PM -33.0370 150.6100 347° North 434 499 23,800 1,932 Climbing FlightAware ADS-B
Tue 04:20:52 PM -32.9963 150.5980 347° North 434 499 24,700 1,350 Climbing Aus ATC (RADAR)
Tue 04:21:13 PM -32.9590 150.5870 347° North 443 510 24,700 1,000 Level FlightAware ADS-B
Tue 04:21:58 PM -32.8700 150.5600 346° North 448 516 25,800 1,826 Climbing FlightAware ADS-B
Tue 04:22:22 PM -32.8161 150.5448 346° North 446 513 26,800 1,500 Climbing Aus ATC (RADAR)
Tue 04:22:38 PM -32.7870 150.5360 346° North 450 518 26,800 689 Level FlightAware ADS-B
Tue 04:23:23 PM -32.6940 150.5090 346° North 461 531 27,500 1,182 Climbing FlightAware ADS-B
Tue 04:23:44 PM -32.6468 150.4949 346° North 453 521 28,100 900 Climbing Aus ATC (RADAR)
Tue 04:24:03 PM -32.6110 150.4840 346° North 470 541 28,100 667 Level FlightAware ADS-B
Tue 04:24:38 PM -32.5370 150.4630 346° North 476 548 28,700 1,435 Climbing FlightAware ADS-B
Tue 04:24:49 PM -32.5090 150.4548 346° North 463 533 29,200 720 Climbing Aus ATC (RADAR)
Tue 04:25:28 PM -32.4280 150.4310 346° North 487 560 29,300 800 Climbing FlightAware ADS-B
Tue 04:25:49 PM -32.3783 150.4162 346° North 474 545 30,000 1,050 Climbing Aus ATC (RADAR)
Tue 04:26:08 PM -32.3410 150.4050 346° North 490 564 30,000 938 Level FlightAware ADS-B
Tue 04:26:53 PM -32.2346 150.3758 346° North 481 554 31,000 873 Climbing Aus ATC (RADAR)
Tue 04:27:03 PM -32.2220 150.3710 346° North 495 570 30,800 545 Descending FlightAware ADS-B
Tue 04:27:48 PM -32.1240 150.3430 346° North 497 572 31,500 988 Climbing FlightAware ADS-B
Tue 04:28:28 PM -32.0340 150.3160 346° North 498 573 32,200 1,200 Climbing FlightAware ADS-B
Tue 04:29:03 PM -31.9439 150.2911 346° North 491 565 33,000 933 Climbing Aus ATC (RADAR)
Tue 04:29:13 PM -31.9350 150.2880 346° North 497 572 32,900 1,080 Descending FlightAware ADS-B
Tue 04:29:53 PM -31.8500 150.2640 347° North 488 562 33,900 1,855 Climbing FlightAware ADS-B
Tue 04:30:08 PM -31.8008 150.2506 347° North 476 548 34,600 1,200 Climbing Aus ATC (RADAR)
Tue 04:30:28 PM -31.7760 150.2420 347° North 482 555 34,600 600 Level FlightAware ADS-B
Tue 04:31:18 PM -31.6610 150.2090 346° North 479 551 35,300 1,108 Climbing FlightAware ADS-B
Tue 04:31:33 PM -31.6175 150.1976 346° North 471 542 35,800 533 Climbing Aus ATC (RADAR)
Tue 04:32:03 PM -31.5650 150.1820 346° North 478 550 35,700 400 Descending FlightAware ADS-B
Tue 04:32:18 PM -31.5193 150.1698 346° North 478 550 36,100 300 Climbing Aus ATC (RADAR)
Tue 04:32:43 PM -31.4780 150.1570 346° North 482 555 35,900 -86 Descending FlightAware ADS-B
Tue 04:33:28 PM -31.3770 150.1280 346° North 479 551 36,000 63 Climbing FlightAware ADS-B
Tue 04:34:18 PM -31.2720 150.0980 346° North 478 550 36,000 212 Level FlightAware ADS-B
Tue 04:34:53 PM -31.1806 150.0728 346° North 478 550 36,300  Climbing Aus ATC (RADAR)
Tue 04:34:53 PM -31.1910 150.0750 346° North 482 555 36,000 -360 Descending FlightAware ADS-B
Tue 04:35:43 PM -31.0820 150.0450 347° North 480 552 36,000 277 Level FlightAware ADS-B
Tue 04:35:58 PM -31.0401 150.0335 347° North 474 545 36,300  Climbing Aus ATC (RADAR)
Tue 04:36:23 PM -30.9990 150.0210 347° North 479 551 36,000  Descending FlightAware ADS-B
Tue 04:37:01 PM -30.9046 149.9949 347° North 479 551 36,300  Climbing Aus ATC (RADAR)
Tue 04:37:08 PM -30.9030 149.9940 347° North 477 549 36,000 -346 Descending FlightAware ADS-B
Tue 04:37:53 PM -30.8100 149.9680 346° North 478 550 36,000  Level FlightAware ADS-B
Tue 04:38:23 PM -30.7440 149.9490 346° North 479 551 36,000 281 Level FlightAware ADS-B
Tue 04:38:57 PM -30.6528 149.9248 346° North 472 543 36,300  Climbing Aus ATC (RADAR)
Tue 04:39:18 PM -30.6380 149.9190 346° North 479 551 36,000 -295 Descending FlightAware ADS-B
Tue 04:39:58 PM -30.5650 149.8980 346° North 479 551 36,000  Level FlightAware ADS-B
Tue 04:40:38 PM -30.4920 149.8760 345° North 479 551 36,000 261 Level FlightAware ADS-B
Tue 04:41:07 PM -30.3752 149.8466 345° North 467 537 36,300  Climbing Aus ATC (RADAR)
Tue 04:41:18 PM -30.4190 149.8550 345° North 479 551 36,000 -353 Descending FlightAware ADS-B
Tue 04:41:58 PM -30.3460 149.8340 346° North 479 551 36,000  Level FlightAware ADS-B
Tue 04:42:48 PM -30.2550 149.8080 346° North 479 551 36,000 234 Level FlightAware ADS-B
Tue 04:43:15 PM -30.1034 149.7849 346° North 464 534 36,300  Climbing Aus ATC (RADAR)
Tue 04:43:28 PM -30.1820 149.7870 346° North 479 551 36,000 -340 Descending FlightAware ADS-B
Tue 04:44:08 PM -30.1080 149.7660 346° North 479 551 36,000  Level FlightAware ADS-B
Tue 04:44:48 PM -30.0350 149.7450 346° North 479 551 36,000 261 Level FlightAware ADS-B
Tue 04:45:17 PM -29.8483 149.7297 346° North 454 522 36,300  Climbing Aus ATC (RADAR)
Tue 04:45:28 PM -29.9620 149.7230 346° North 479 551 36,000 -353 Descending FlightAware ADS-B
Tue 04:46:08 PM -29.8890 149.7020 346° North 479 551 36,000 316 Level FlightAware ADS-B
Tue 04:46:25 PM -29.7064 149.7001 346° North 458 527 36,300  Climbing Aus ATC (RADAR)
Tue 04:46:58 PM -29.7980 149.6760 346° North 479 551 36,000  Descending FlightAware ADS-B
Tue 04:47:25 PM -29.5830 149.6730 346° North 452 520 36,300  Climbing Aus ATC (RADAR)
Tue 04:47:38 PM -29.7250 149.6550 346° North 479 551 36,000 -340 Descending FlightAware ADS-B
Tue 04:48:18 PM -29.6510 149.6340 346° North 479 551 36,000 158 Level FlightAware ADS-B
Tue 04:49:32 PM -29.3188 149.6175 346° North 453 521 36,300 134 Climbing Aus ATC (RADAR)
Tue 04:50:32 PM -29.1943 149.5911 350° North 453 521 36,300  Level Aus ATC (RADAR)
Tue 04:51:36 PM -29.0599 149.5624 349° North 452 520 36,300 -142 Level Aus ATC (RADAR)
Tue 04:52:39 PM -28.9294 149.5361 350° North 455 524 36,000  Descending Aus ATC (RADAR)
Tue 04:54:31 PM -28.6984 149.4869 349° North 449 517 36,300 68 Climbing Aus ATC (RADAR)
Tue 04:55:36 PM -28.5654 149.4592 350° North 445 512 36,200 -38 Descending Aus ATC (RADAR)
Tue 04:57:09 PM -28.3763 149.4190 349° North 447 514 36,200  Level Aus ATC (RADAR)
Tue 04:58:11 PM -28.2502 149.3938 350° North 444 511 36,200 39 Level Aus ATC (RADAR)
Tue 04:59:44 PM -28.0641 149.3387 345° North 447 514 36,300  Climbing Aus ATC (RADAR)
Tue 05:00:46 PM -27.9485 149.2867 338° Northwest 437 503 36,200 -59 Descending Aus ATC (RADAR)
Tue 05:01:26 PM -27.8716 149.2586 342° North 436 502 36,200 69 Level Aus ATC (RADAR)
Tue 05:02:13 PM -27.7780 149.2265 343° North 436 502 36,300  Climbing Aus ATC (RADAR)
Tue 05:03:05 PM -27.6791 149.1889 341° North 431 496 36,200 -69 Descending Aus ATC (RADAR)
Tue 05:03:40 PM -27.6126 149.1649 342° North 429 494 36,200  Level Aus ATC (RADAR)
Tue 05:04:35 PM -27.5086 149.1271 342° North 428 493 36,200  Level Aus ATC (RADAR)
Tue 05:04:50 PM -27.4807 149.1170 342° North 424 488 36,200  Level Aus ATC (RADAR)
Tue 05:06:35 PM -27.2829 149.0456 342° North 426 490 36,200  Level Aus ATC (RADAR)
Tue 05:07:10 PM -27.2165 149.0219 342° North 428 493 36,200  Level Aus ATC (RADAR)
Tue 05:07:25 PM -27.1882 149.0116 342° North 427 491 36,200  Level Aus ATC (RADAR)
Tue 05:08:01 PM -27.1219 148.9879 342° North 428 493 36,200 67 Level Aus ATC (RADAR)
Tue 05:08:55 PM -27.0169 148.9500 342° North 430 495 36,300 67 Climbing Aus ATC (RADAR)
Tue 05:09:30 PM -26.9497 148.9261 342° North 433 498 36,300 -67 Level Aus ATC (RADAR)
Tue 05:10:25 PM -26.8452 148.8888 342° North 432 497 36,200 -109 Descending Aus ATC (RADAR)
Tue 05:11:20 PM -26.7418 148.8519 342° North 425 489 36,100 -60 Descending Aus ATC (RADAR)
Tue 05:12:05 PM -26.6574 148.8216 342° North 424 488 36,100  Level Aus ATC (RADAR)
Tue 05:12:40 PM -26.5925 148.7980 342° North 420 483 36,100  Level Aus ATC (RADAR)
Tue 05:13:35 PM -26.4921 148.7643 343° North 415 478 36,100  Level Aus ATC (RADAR)
Tue 05:14:10 PM -26.4256 148.7451 345° North 421 484 36,100  Level Aus ATC (RADAR)
Tue 05:15:05 PM -26.3227 148.7162 346° North 416 479 36,100  Level Aus ATC (RADAR)
Tue 05:16:59 PM -26.1057 148.6534 345° North 419 482 36,100  Level Aus ATC (RADAR)
Tue 05:17:39 PM -26.0297 148.6311 345° North 423 487 36,100 109 Level Aus ATC (RADAR)
Tue 05:17:54 PM -26.0018 148.6228 345° North 420 483 36,200  Climbing Aus ATC (RADAR)
Tue 05:18:29 PM -25.9362 148.6037 345° North 418 481 36,100 -67 Descending Aus ATC (RADAR)
Tue 05:19:24 PM -25.8324 148.5735 345° North 420 483 36,100 -67 Level Aus ATC (RADAR)
Tue 05:19:48 PM -25.8060 148.5660 345° North 36,000 -176 Descending FlightAware ADS-B
Tue 05:19:58 PM -25.7940 148.5630 347° North 413 475 36,000 545 Level FlightAware ADS-B
Tue 05:19:59 PM -25.7676 148.5545 345° North 414 476 36,100  Climbing Aus ATC (RADAR)
Tue 05:20:43 PM -25.7180 148.5400 345° North 413 475 36,000  Descending FlightAware ADS-B
Tue 05:21:14 PM -25.6309 148.5152 345° North 402 463 36,100 130 Climbing Aus ATC (RADAR)
Tue 05:21:29 PM -25.6032 148.5074 346° North 406 467 36,100 -207 Level Aus ATC (RADAR)
Tue 05:21:43 PM -25.6120 148.5090 346° North 412 474 36,000  Descending FlightAware ADS-B
Tue 05:22:19 PM -25.5121 148.4807 346° North 406 467 36,100  Climbing Aus ATC (RADAR)
Tue 05:22:23 PM -25.5380 148.4890 346° North 407 468 36,000 -136 Descending FlightAware ADS-B
Tue 05:23:03 PM -25.4550 148.4640 345° North 408 470 36,000  Level FlightAware ADS-B
Tue 05:23:48 PM -25.3820 148.4430 345° North 408 470 36,000 98 Level FlightAware ADS-B
Tue 05:24:04 PM -25.3199 148.4253 345° North 409 471 36,100  Climbing Aus ATC (RADAR)
Tue 05:24:28 PM -25.2960 148.4190 345° North 415 478 36,000  Descending FlightAware ADS-B
Tue 05:25:08 PM -25.2210 148.3970 345° North 415 478 36,100 92 Climbing FlightAware ADS-B
Tue 05:25:33 PM -25.1521 148.3771 345° North 413 475 36,100  Level Aus ATC (RADAR)
Tue 05:25:53 PM -25.1400 148.3740 345° North 416 479 36,100  Level FlightAware ADS-B
Tue 05:26:33 PM -25.0620 148.3510 345° North 416 479 36,100 100 Level FlightAware ADS-B
Tue 05:26:53 PM -25.0027 148.3349 345° North 415 478 36,200 171 Climbing Aus ATC (RADAR)
Tue 05:27:08 PM -24.9748 148.3270 346° North 415 478 36,200 -300 Level Aus ATC (RADAR)
Tue 05:27:13 PM -24.9860 148.3300 346° North 416 479 36,100 -171 Descending FlightAware ADS-B
Tue 05:27:43 PM -24.9096 148.3081 346° North 414 476 36,100  Level Aus ATC (RADAR)
Tue 05:27:58 PM -24.9050 148.3070 346° North 410 472 36,100 -109 Level FlightAware ADS-B
Tue 05:28:38 PM -24.8280 148.2850 345° North 407 468 36,000 -75 Descending FlightAware ADS-B
Tue 05:29:18 PM -24.7560 148.2640 345° North 406 467 36,000 133 Level FlightAware ADS-B
Tue 05:29:23 PM -24.7276 148.2563 345° North 404 465 36,100  Climbing Aus ATC (RADAR)
Tue 05:29:58 PM -24.6840 148.2430 345° North 405 466 36,000  Descending FlightAware ADS-B
Tue 05:30:18 PM -24.6277 148.2276 345° North 407 468 36,100  Climbing Aus ATC (RADAR)
Tue 05:30:48 PM -24.5950 148.2180 345° North 407 468 36,000 -86 Descending FlightAware ADS-B
Tue 05:31:28 PM -24.5250 148.1980 345° North 409 471 36,000 75 Level FlightAware ADS-B
Tue 05:32:08 PM -24.4262 148.1705 345° North 410 472 36,100  Climbing Aus ATC (RADAR)
Tue 05:32:13 PM -24.4410 148.1740 345° North 411 473 36,000  Descending FlightAware ADS-B
Tue 05:32:48 PM -24.3720 148.1550 346° North 411 473 36,100 120 Climbing FlightAware ADS-B
Tue 05:33:03 PM -24.3247 148.1418 346° North 412 474 36,100  Level Aus ATC (RADAR)
Tue 05:33:28 PM -24.3020 148.1350 346° North 410 472 36,100  Level FlightAware ADS-B
Tue 05:34:13 PM -24.1966 148.1058 346° North 406 467 36,100 -120 Level Aus ATC (RADAR)
Tue 05:34:18 PM -24.2110 148.1090 346° North 409 471 36,000  Descending FlightAware ADS-B
Tue 05:34:48 PM -24.1322 148.0874 346° North 408 470 36,100  Climbing Aus ATC (RADAR)
Tue 05:34:58 PM -24.1390 148.0890 346° North 408 470 36,000  Descending FlightAware ADS-B
Tue 05:35:38 PM -24.0401 148.0613 346° North 411 473 36,100  Climbing Aus ATC (RADAR)
Tue 05:35:38 PM -24.0600 148.0660 346° North 411 473 36,000 -120 Descending FlightAware ADS-B
Tue 05:36:28 PM -23.9710 148.0410 346° North 412 474 36,000 87 Level FlightAware ADS-B
Tue 05:36:47 PM -23.9110 148.0252 346° North 412 474 36,100 200 Climbing Aus ATC (RADAR)
Tue 05:36:58 PM -23.9100 148.0240 346° North 411 473 36,100  Level FlightAware ADS-B
Tue 05:37:22 PM -23.8466 148.0070 346° North 410 472 36,100  Level Aus ATC (RADAR)
Tue 05:37:37 PM -23.8191 147.9993 346° North 409 471 36,100 -231 Level Aus ATC (RADAR)
Tue 05:37:48 PM -23.8270 148.0010 346° North 410 472 36,000  Descending FlightAware ADS-B
Tue 05:38:12 PM -23.7548 147.9813 346° North 409 471 36,100  Climbing Aus ATC (RADAR)
Tue 05:38:33 PM -23.7320 147.9740 346° North 408 470 36,000 -109 Descending FlightAware ADS-B
Tue 05:39:07 PM -23.6546 147.9529 346° North 405 466 36,000  Level Aus ATC (RADAR)
Tue 05:39:08 PM -23.6670 147.9560 346° North 408 470 36,000 171 Level FlightAware ADS-B
Tue 05:39:42 PM -23.5899 147.9355 346° North 410 472 36,100  Climbing Aus ATC (RADAR)
Tue 05:39:48 PM -23.6120 147.9410 346° North 409 471 36,000 -107 Descending FlightAware ADS-B
Tue 05:40:38 PM -23.5120 147.9130 346° North 412 474 36,000 87 Level FlightAware ADS-B
Tue 05:40:57 PM -23.4512 147.8961 346° North 415 478 36,100  Climbing Aus ATC (RADAR)
Tue 05:41:18 PM -23.4360 147.8920 346° North 416 479 36,000 -98 Descending FlightAware ADS-B
Tue 05:41:58 PM -23.3720 147.8740 346° North 420 483 36,000  Level FlightAware ADS-B
Tue 05:42:22 PM -23.2916 147.8517 346° North 419 482 36,000  Level Aus ATC (RADAR)
Tue 05:42:38 PM -23.2870 147.8500 346° North 422 486 36,000  Level FlightAware ADS-B
Tue 05:42:57 PM -23.2252 147.8335 346° North 421 484 36,000 120 Level Aus ATC (RADAR)
Tue 05:43:28 PM -23.1920 147.8240 346° North 423 487 36,100  Climbing FlightAware ADS-B
Tue 05:43:57 PM -23.1116 147.8019 346° North 422 486 36,000 -150 Descending Aus ATC (RADAR)
Tue 05:44:08 PM -23.1110 147.8010 346° North 423 487 36,000  Level FlightAware ADS-B
Tue 05:44:32 PM -23.0451 147.7835 346° North 423 487 36,000  Level Aus ATC (RADAR)
Tue 05:44:43 PM -23.0500 147.7840 346° North 424 488 36,000 98 Level FlightAware ADS-B
Tue 05:45:33 PM -22.9420 147.7540 346° North 423 487 36,100  Climbing FlightAware ADS-B
Tue 05:46:12 PM -22.8551 147.7309 346° North 422 486 36,000 -150 Descending Aus ATC (RADAR)
Tue 05:46:13 PM -22.8670 147.7340 346° North 422 486 36,000  Level FlightAware ADS-B
Tue 05:46:48 PM -22.8110 147.7180 345° North 421 484 36,000  Level FlightAware ADS-B
Tue 05:47:32 PM -22.7035 147.6889 345° North 421 484 36,000  Level Aus ATC (RADAR)
Tue 05:47:38 PM -22.7190 147.6920 345° North 422 486 36,000  Level FlightAware ADS-B
Tue 05:48:18 PM -22.6420 147.6710 346° North 423 487 36,000  Level FlightAware ADS-B
Tue 05:48:58 PM -22.5610 147.6490 346° North 422 486 36,000  Level FlightAware ADS-B
Tue 05:49:22 PM -22.4951 147.6316 346° North 420 483 36,000  Level Aus ATC (RADAR)
Tue 05:49:43 PM -22.4740 147.6250 346° North 420 483 36,000  Level FlightAware ADS-B
Tue 05:50:23 PM -22.4040 147.6010 342° North 412 474 36,000  Level FlightAware ADS-B
Tue 05:50:56 PM -22.3227 147.5689 342° North 412 474 36,000  Level Aus ATC (RADAR)
Tue 05:51:03 PM -22.3300 147.5710 342° North 411 473 36,000  Level FlightAware ADS-B
Tue 05:51:38 PM -22.2720 147.5480 340° North 410 472 36,000  Level FlightAware ADS-B
Tue 05:52:02 PM -22.2073 147.5241 340° North 404 465 36,000  Level Aus ATC (RADAR)
Tue 05:52:23 PM -22.1940 147.5180 340° North 407 468 36,000  Level FlightAware ADS-B
Tue 05:52:51 PM -22.1186 147.4892 340° North 406 467 36,000  Level Aus ATC (RADAR)
Tue 05:53:03 PM -22.1210 147.4890 340° North 404 465 36,000  Level FlightAware ADS-B
Tue 05:53:26 PM -22.0573 147.4651 340° North 405 466 36,000  Level Aus ATC (RADAR)
Tue 05:53:53 PM -22.0350 147.4550 340° North 404 465 36,000  Level FlightAware ADS-B
Tue 05:54:21 PM -21.9608 147.4272 340° North 400 460 36,000  Level Aus ATC (RADAR)
Tue 05:54:33 PM -21.9600 147.4260 340° North 405 466 36,000  Level FlightAware ADS-B
Tue 05:54:56 PM -21.8990 147.4028 340° North 403 464 36,000  Level Aus ATC (RADAR)
Tue 05:55:13 PM -21.8920 147.3990 340° North 406 467 36,000 100 Level FlightAware ADS-B
Tue 05:55:56 PM -21.7926 147.3618 340° North 403 464 36,100  Climbing Aus ATC (RADAR)
Tue 05:55:58 PM -21.8090 147.3670 340° North 407 468 36,000 -143 Descending FlightAware ADS-B
Tue 05:56:38 PM -21.7360 147.3390 340° North 406 467 36,000 68 Level FlightAware ADS-B
Tue 05:57:26 PM -21.6342 147.2999 340° North 402 463 36,100  Climbing Aus ATC (RADAR)
Tue 05:57:38 PM -21.6410 147.3020 340° North 399 459 36,000  Descending FlightAware ADS-B
Tue 05:58:16 PM -21.5479 147.2661 340° North 393 452 36,100  Climbing Aus ATC (RADAR)
Tue 05:58:23 PM -21.5530 147.2670 340° North 397 457 36,000 -143 Descending FlightAware ADS-B
Tue 05:58:58 PM -21.4950 147.2450 341° North 398 458 36,000 113 Level FlightAware ADS-B
Tue 05:59:16 PM -21.4437 147.2256 341° North 399 459 36,100  Climbing Aus ATC (RADAR)
Tue 05:59:43 PM -21.4060 147.2100 341° North 398 458 36,000 -90 Descending FlightAware ADS-B
Tue 06:00:23 PM -21.3450 147.1860 340° North 401 461 36,000 88 Level FlightAware ADS-B
Tue 06:00:51 PM -21.2871 147.1647 340° North 399 459 36,100  Climbing Aus ATC (RADAR)
Tue 06:01:23 PM -21.2480 147.1490 340° North 403 464 36,000 -83 Descending FlightAware ADS-B
Tue 06:02:03 PM -21.1770 147.1210 340° North 404 465 36,000  Level FlightAware ADS-B
Tue 06:02:43 PM -21.1030 147.0930 341° North 404 465 36,000 76 Level FlightAware ADS-B
Tue 06:03:22 PM -21.0489 147.0729 341° North 406 467 36,100  Climbing Aus ATC (RADAR)
Tue 06:03:23 PM -21.0390 147.0680 341° North 407 468 36,000  Descending FlightAware ADS-B
Tue 06:03:39 PM -21.0222 147.0626 341° North 407 468 36,100  Climbing Aus ATC (RADAR)
Tue 06:04:16 PM -20.9867 147.0489 340° North 408 470 36,000  Descending Aus ATC (RADAR)
Tue 06:04:53 PM -20.8530 146.9970 340° North 396 456 36,100  Climbing FlightAware ADS-B
Tue 06:05:16 PM -20.8719 147.0047 340° North 402 463 36,000 -97 Descending Aus ATC (RADAR)
Tue 06:05:55 PM -20.7752 146.9676 340° North 403 464 36,000  Level Aus ATC (RADAR)
Tue 06:06:03 PM -20.7310 146.9490 340° North 393 452 36,000  Level FlightAware ADS-B
Tue 06:07:13 PM -20.6060 146.9020 341° North 391 450 36,000  Level FlightAware ADS-B
Tue 06:07:32 PM -20.5749 146.8907 341° North 398 458 36,000  Level Aus ATC (RADAR)
Tue 06:08:23 PM -20.4870 146.8560 341° North 393 452 36,000  Level FlightAware ADS-B
Tue 06:09:13 PM -20.4091 146.8275 341° North 402 463 36,000  Level Aus ATC (RADAR)
Tue 06:10:03 PM -20.3190 146.7920 341° North 396 456 36,000  Level FlightAware ADS-B
Tue 06:10:36 PM -20.2511 146.7666 341° North 403 464 36,000  Level Aus ATC (RADAR)
Tue 06:10:43 PM -20.2460 146.7640 341° North 397 457 36,000  Level FlightAware ADS-B
Tue 06:11:23 PM -20.1770 146.7380 341° North 397 457 36,000  Level FlightAware ADS-B
Tue 06:12:33 PM -20.0510 146.6890 340° North 409 471 36,000  Level FlightAware ADS-B
Tue 06:13:08 PM -19.9870 146.6650 341° North 410 472 36,000  Level FlightAware ADS-B
Tue 06:13:29 PM -19.9406 146.6476 341° North 408 470 36,000  Level Aus ATC (RADAR)
Tue 06:13:58 PM -19.8970 146.6310 341° North 410 472 36,000  Level FlightAware ADS-B
Tue 06:14:53 PM -19.8010 146.5940 340° North 409 471 36,000  Level FlightAware ADS-B
Tue 06:15:09 PM -19.7623 146.5797 340° North 408 470 36,000  Level Aus ATC (RADAR)
Tue 06:15:33 PM -19.7290 146.5670 340° North 407 468 36,000  Level FlightAware ADS-B
Tue 06:16:18 PM -19.6500 146.5370 340° North 398 458 36,000  Level FlightAware ADS-B
Tue 06:16:34 PM -19.6118 146.5227 340° North 406 467 36,000  Level Aus ATC (RADAR)
Tue 06:17:28 PM -19.5270 146.4910 340° North 397 457 36,000  Level FlightAware ADS-B
Tue 06:18:04 PM -19.4530 146.4615 340° North 409 471 36,000  Level Aus ATC (RADAR)
Tue 06:18:38 PM -19.4020 146.4430 340° North 407 468 36,000  Level FlightAware ADS-B
Tue 06:19:48 PM -19.2790 146.3970 341° North 409 471 36,000  Level FlightAware ADS-B
Tue 06:20:23 PM -19.2140 146.3730 341° North 409 471 36,000  Level FlightAware ADS-B
Tue 06:20:29 PM -19.1936 146.3642 341° North 407 468 36,000  Level Aus ATC (RADAR)
Tue 06:21:13 PM -19.1240 146.3390 340° North 411 473 36,000  Level FlightAware ADS-B
Tue 06:21:29 PM -19.0854 146.3249 340° North 409 471 36,000  Level Aus ATC (RADAR)
Tue 06:22:08 PM -19.0280 146.3030 340° North 411 473 36,000  Level FlightAware ADS-B
Tue 06:22:39 PM -18.9602 146.2765 340° North 411 473 36,000  Level Aus ATC (RADAR)
Tue 06:22:48 PM -18.9520 146.2740 340° North 413 475 36,000  Level FlightAware ADS-B
Tue 06:23:14 PM -18.8974 146.2520 340° North 413 475 36,000  Level Aus ATC (RADAR)
Tue 06:23:29 PM -18.8704 146.2415 340° North 413 475 36,000  Level Aus ATC (RADAR)
Tue 06:23:33 PM -18.8720 146.2440 340° North 414 476 36,000  Level FlightAware ADS-B
Tue 06:24:03 PM -18.8065 146.2199 340° North 408 470 36,000  Level Aus ATC (RADAR)
Tue 06:24:43 PM -18.7450 146.1970 340° North 407 468 36,000  Level FlightAware ADS-B
Tue 06:24:58 PM -18.7071 146.1811 340° North 413 475 36,000  Level Aus ATC (RADAR)
Tue 06:25:33 PM -18.6439 146.1585 341° North 412 474 36,000  Level Aus ATC (RADAR)
Tue 06:25:53 PM -18.6190 146.1500 341° North 414 476 36,000  Level FlightAware ADS-B
Tue 06:26:28 PM -18.5451 146.1203 341° North 409 471 36,000  Level Aus ATC (RADAR)
Tue 06:27:03 PM -18.4920 146.1020 341° North 414 476 36,000  Level FlightAware ADS-B
Tue 06:27:28 PM -18.4366 146.0792 341° North 414 476 36,000  Level Aus ATC (RADAR)
Tue 06:27:38 PM -18.4280 146.0780 341° North 407 468 36,000  Level FlightAware ADS-B
Tue 06:28:03 PM -18.3729 146.0569 341° North 409 471 36,000 -150 Level Aus ATC (RADAR)
Tue 06:28:18 PM -18.3460 146.0464 340° North 408 470 35,900  Descending Aus ATC (RADAR)
Tue 06:28:28 PM -18.3360 146.0440 340° North 412 474 36,000 -171 Climbing FlightAware ADS-B
Tue 06:28:53 PM -18.2828 146.0228 340° North 410 472 35,800 -1,527 Descending Aus ATC (RADAR)
Tue 06:29:23 PM -18.2390 146.0080 340° North 426 490 34,600 -2,509 Descending FlightAware ADS-B
Tue 06:29:48 PM -18.1816 145.9859 340° North 413 475 33,500 -2,850 Descending Aus ATC (RADAR)
Tue 06:30:03 PM -18.1620 145.9790 340° North 425 489 32,700 -3,257 Descending FlightAware ADS-B
Tue 06:30:23 PM -18.1164 145.9613 340° North 419 482 31,600 -2,400 Descending Aus ATC (RADAR)
Tue 06:30:48 PM -18.0790 145.9490 340° North 423 487 30,900 -2,300 Descending FlightAware ADS-B
Tue 06:31:23 PM -18.0058 145.9201 340° North 419 482 29,300 -2,250 Descending Aus ATC (RADAR)
Tue 06:31:28 PM -18.0050 145.9210 340° North 409 471 29,400 -1,867 Climbing FlightAware ADS-B
Tue 06:32:08 PM -17.9330 145.8940 340° North 410 472 27,900 -2,188 Descending FlightAware ADS-B
Tue 06:32:53 PM -17.8510 145.8640 341° North 395 455 26,300 -2,308 Descending FlightAware ADS-B
Tue 06:33:13 PM -17.8097 145.8482 341° North 399 459 25,400 -2,100 Descending Aus ATC (RADAR)
Tue 06:33:33 PM -17.7840 145.8390 341° North 396 456 24,900 -2,100 Descending FlightAware ADS-B
Tue 06:33:53 PM -17.7406 145.8227 341° North 389 448 24,000 -2,057 Descending Aus ATC (RADAR)
Tue 06:34:08 PM -17.7230 145.8160 341° North 390 449 23,700 -1,745 Descending FlightAware ADS-B
Tue 06:34:48 PM -17.6560 145.7880 338° Northwest 379 436 22,400 -2,143 Descending FlightAware ADS-B
Tue 06:35:32 PM -17.5795 145.7485 338° Northwest 371 427 20,700 -2,000 Descending Aus ATC (RADAR)
Tue 06:35:33 PM -17.5870 145.7520 338° Northwest 364 419 20,900 -1,463 Climbing FlightAware ADS-B
Tue 06:36:13 PM -17.5250 145.7210 335° Northwest 356 410 19,700 -2,034 Descending FlightAware ADS-B
Tue 06:36:32 PM -17.4882 145.7020 335° Northwest 356 410 18,900 -2,000 Descending Aus ATC (RADAR)
Tue 06:36:58 PM -17.4530 145.6840 335° Northwest 353 406 18,200 -1,745 Descending FlightAware ADS-B
Tue 06:37:27 PM -17.4073 145.6609 335° Northwest 350 403 17,300 -1,650 Descending Aus ATC (RADAR)
Tue 06:37:38 PM -17.3960 145.6550 335° Northwest 345 397 17,100 -1,886 Descending FlightAware ADS-B
Tue 06:38:02 PM -17.3575 145.6355 335° Northwest 337 388 16,200 -2,000 Descending Aus ATC (RADAR)
Tue 06:38:17 PM -17.3362 145.6246 334° Northwest 335 386 15,800 -1,125 Descending Aus ATC (RADAR)
Tue 06:38:18 PM -17.3400 145.6260 334° Northwest 339 390 15,900 -1,714 Climbing FlightAware ADS-B
Tue 06:38:52 PM -17.2868 145.5999 334° Northwest 333 383 14,800 -1,733 Descending Aus ATC (RADAR)
Tue 06:39:03 PM -17.2740 145.5930 334° Northwest 332 382 14,600 -1,529 Descending FlightAware ADS-B
Tue 06:39:43 PM -17.2220 145.5660 334° Northwest 326 375 13,500 -1,747 Descending FlightAware ADS-B
Tue 06:40:22 PM -17.1631 145.5364 334° Northwest 329 379 12,300 -1,600 Descending Aus ATC (RADAR)
Tue 06:40:28 PM -17.1580 145.5340 334° Northwest 342 394 12,300 -1,565 Level FlightAware ADS-B
Tue 06:41:08 PM -17.1000 145.5050 334° Northwest 334 384 11,100 -1,425 Descending FlightAware ADS-B
Tue 06:41:48 PM -17.0480 145.4790 334° Northwest 310 357 10,400 -847 Descending FlightAware ADS-B
Tue 06:42:33 PM -16.9920 145.4500 334° Northwest 281 323 9,900 -957 Descending FlightAware ADS-B
Tue 06:42:57 PM -16.9614 145.4338 334° Northwest 279 321 9,300 -1,200 Descending Aus ATC (RADAR)
Tue 06:42:58 PM -16.9670 145.4370 334° Northwest 276 318 9,400 -968 Climbing FlightAware ADS-B
Tue 06:43:28 PM -16.9290 145.4190 336° Northwest 275 316 8,800 -1,050 Descending FlightAware ADS-B
Tue 06:43:38 PM -16.9180 145.4170 350° North 279 321 8,700 -1,000 Descending FlightAware ADS-B
Tue 06:43:58 PM -16.8950 145.4230 14° North 279 321 8,300 -1,200 Descending FlightAware ADS-B
Tue 06:44:23 PM -16.8640 145.4420 30° Northeast 274 315 7,800 -1,200 Descending FlightAware ADS-B
Tue 06:44:53 PM -16.8310 145.4610 29° Northeast 265 305 7,200 -1,200 Descending FlightAware ADS-B
Tue 06:45:18 PM -16.8030 145.4760 27° Northeast 259 298 6,700 -1,200 Descending FlightAware ADS-B
Tue 06:45:33 PM -16.7870 145.4850 28° Northeast 256 295 6,400 -1,067 Descending FlightAware ADS-B
Tue 06:46:03 PM -16.7560 145.5020 28° Northeast 249 287 5,900 -1,091 Descending FlightAware ADS-B
Tue 06:46:28 PM -16.7330 145.5160 30° Northeast 242 278 5,400 -1,125 Descending FlightAware ADS-B
Tue 06:46:51 PM -16.7065 145.5308 30° Northeast 244 281 5,000 -1,000 Descending Aus ATC (RADAR)
Tue 06:46:58 PM -16.7010 145.5340 30° Northeast 250 288 4,900 -938 Descending FlightAware ADS-B
Tue 06:47:23 PM -16.6820 145.5510 41° Northeast 247 284 4,500 -764 Descending FlightAware ADS-B
Tue 06:47:53 PM -16.6560 145.5790 46° Northeast 247 284 4,200 -300 Descending FlightAware ADS-B
Tue 06:48:23 PM -16.6370 145.6050 53° Northeast 220 253 4,200  Level FlightAware ADS-B
Tue 06:48:38 PM -16.6320 145.6180 68° East 215 247 4,200  Level FlightAware ADS-B
Tue 06:49:03 PM -16.6430 145.6400 118° Southeast 223 257 4,200  Level FlightAware ADS-B
Tue 06:49:18 PM -16.6600 145.6500 151° Southeast 229 264 4,200 -545 Level FlightAware ADS-B
Tue 06:49:58 PM -16.6930 145.6660 155° Southeast 221 254 3,700 -1,143 Descending FlightAware ADS-B
Tue 06:50:21 PM -16.7222 145.6785 155° Southeast 222 255 3,000 -1,400 Descending Aus ATC (RADAR)
Tue 06:50:28 PM -16.7220 145.6790 155° Southeast 222 255 3,000 -818 Level FlightAware ADS-B
Tue 06:50:43 PM -16.7390 145.6860 158° South 220 253 2,700 -1,050 Descending FlightAware ADS-B
Tue 06:51:08 PM -16.7600 145.6960 155° Southeast 209 241 2,300 -436 Descending FlightAware ADS-B
Tue 06:51:38 PM -16.7830 145.7070 155° Southeast 206 237 2,300 -956 Level FlightAware ADS-B
Tue 06:53:01 PM -16.8436 145.7337 155° Southeast 141 162 500 -1,224 Descending Aus ATC (RADAR)
Tue 06:53:16 PM -16.8525 145.7377 156° South 140 161 300 -800 Descending Aus ATC (RADAR)
Tue 06:55:00 PM -16.8860 145.7553 163° South  Level FlightAware Approximate
Tue 07:02:00 PM -16.8858 145.7553 163° South  Level Estimated
Tue 07:03:00 PM -16.8858 145.7553 163° South  Level Estimated
Tue 07:04:00 PM -16.8858 145.7553 163° South  Level Estimated

Login

Don't have an account? Register now (free) for customized features, flight alerts, and more!